Time;durP1;ratioP1;P1;durP2;ratioP2;P2;SDS_P1;SDS_P2;PMS_P1;PMS_P2;Temp;Humidity;BMP_temperature;BMP_pressure;BME280_temperature;BME280_humidity;BME280_pressure;Samples;Min_cycle;Max_cycle;Signal;HPM_P1;HPM_P2
2021/05/07 00:01:10;;;;;;;1.80;0.10;;;22.10;37.00;;;;;;5031773;28;20474;-50
2021/05/07 00:03:38;;;;;;;1.92;0.10;;;22.10;37.10;;;;;;5031584;28;20460;-48
2021/05/07 00:06:04;;;;;;;0.40;0.00;;;22.10;37.00;;;;;;5031411;28;20049;-50
2021/05/07 00:08:39;;;;;;;0.90;0.10;;;22.10;37.00;;;;;;5036398;28;20032;-49
2021/05/07 00:11:18;;;;;;;0.17;0.05;;;22.10;37.10;;;;;;5022025;28;20025;-50
2021/05/07 00:13:46;;;;;;;0.20;0.08;;;22.10;37.10;;;;;;5030225;28;20025;-51
2021/05/07 00:16:12;;;;;;;0.20;0.08;;;22.10;37.00;;;;;;5032209;28;20021;-50
2021/05/07 00:18:38;;;;;;;0.28;0.00;;;22.10;37.00;;;;;;5030890;28;20055;-50
2021/05/07 00:21:05;;;;;;;0.85;0.10;;;22.00;37.00;;;;;;5029941;28;20053;-49
2021/05/07 00:23:32;;;;;;;0.30;0.10;;;22.00;37.00;;;;;;5030779;28;20026;-50
2021/05/07 00:25:58;;;;;;;0.52;0.00;;;22.00;37.00;;;;;;5023177;28;20056;-50
2021/05/07 00:28:24;;;;;;;0.22;0.00;;;22.00;37.10;;;;;;5029515;28;20021;-49
2021/05/07 00:30:50;;;;;;;0.50;0.10;;;22.00;37.00;;;;;;5032110;28;20105;-51
2021/05/07 00:33:16;;;;;;;0.30;0.10;;;22.00;37.10;;;;;;5036449;28;20071;-49
2021/05/07 00:35:42;;;;;;;0.57;0.10;;;22.00;37.10;;;;;;5035725;28;20021;-51
2021/05/07 00:38:08;;;;;;;0.30;0.00;;;21.90;37.00;;;;;;5036506;28;20079;-51
2021/05/07 00:40:35;;;;;;;0.20;0.10;;;21.90;37.00;;;;;;5032964;28;20037;-49
2021/05/07 00:43:01;;;;;;;0.75;0.10;;;22.00;37.10;;;;;;5026186;28;20646;-50
2021/05/07 00:45:27;;;;;;;0.30;0.10;;;21.90;37.00;;;;;;5026479;28;20098;-49
2021/05/07 00:48:12;;;;;;;0.20;0.10;;;21.90;37.00;;;;;;5030539;28;20060;-50
2021/05/07 00:50:43;;;;;;;0.22;0.00;;;21.90;37.10;;;;;;5027642;28;20088;-49
2021/05/07 00:53:09;;;;;;;0.35;0.10;;;21.90;37.10;;;;;;5030484;28;20057;-51
2021/05/07 00:55:37;;;;;;;0.30;0.00;;;21.90;37.10;;;;;;5014033;28;20021;-49
2021/05/07 00:58:03;;;;;;;0.98;0.10;;;21.90;37.10;;;;;;5029998;28;20075;-51
2021/05/07 01:00:32;;;;;;;0.30;0.00;;;21.90;37.10;;;;;;5029841;28;20104;-51
2021/05/07 01:03:00;;;;;;;0.10;0.00;;;21.90;37.10;;;;;;5029242;28;20028;-49
2021/05/07 01:05:27;;;;;;;0.30;0.10;;;21.80;37.00;;;;;;5030635;28;20155;-49
2021/05/07 01:07:54;;;;;;;0.20;0.00;;;21.90;37.10;;;;;;5029540;28;20033;-51
2021/05/07 01:10:21;;;;;;;0.25;0.10;;;21.80;37.00;;;;;;5030124;28;20021;-51
2021/05/07 01:12:48;;;;;;;0.20;0.10;;;21.90;37.10;;;;;;5029408;28;20021;-48
2021/05/07 01:15:22;;;;;;;0.63;0.15;;;21.80;36.90;;;;;;5030432;28;20505;-51
2021/05/07 01:17:54;;;;;;;0.30;0.10;;;21.80;37.00;;;;;;5029888;28;20053;-48
2021/05/07 01:20:24;;;;;;;0.15;0.00;;;21.80;37.00;;;;;;5030574;28;20018;-50
2021/05/07 01:22:52;;;;;;;0.70;0.10;;;21.80;37.00;;;;;;5029854;28;20068;-51
2021/05/07 01:25:25;;;;;;;0.70;0.20;;;21.80;37.00;;;;;;5029811;28;20022;-51
2021/05/07 01:27:54;;;;;;;0.10;0.00;;;21.80;37.00;;;;;;5024113;28;20033;-50
2021/05/07 01:30:23;;;;;;;0.10;0.00;;;21.80;37.00;;;;;;5029807;28;20490;-53
2021/05/07 01:32:50;;;;;;;0.20;0.10;;;21.80;37.10;;;;;;5029279;28;20053;-49
2021/05/07 01:35:24;;;;;;;0.80;0.10;;;21.80;37.10;;;;;;5029028;28;20096;-49
2021/05/07 01:37:53;;;;;;;0.28;0.10;;;21.80;37.00;;;;;;5028780;28;20732;-50
2021/05/07 01:40:21;;;;;;;0.20;0.10;;;21.70;37.00;;;;;;5029718;28;20028;-49
2021/05/07 01:42:47;;;;;;;0.25;0.10;;;21.70;37.00;;;;;;5029050;28;20029;-49
2021/05/07 01:45:15;;;;;;;0.22;0.00;;;21.70;37.00;;;;;;5029515;28;20025;-49
2021/05/07 01:47:42;;;;;;;0.88;0.10;;;21.70;37.00;;;;;;5028704;28;20049;-51
2021/05/07 01:50:11;;;;;;;0.30;0.10;;;21.70;37.00;;;;;;5031339;28;20044;-49
2021/05/07 01:52:38;;;;;;;0.30;0.10;;;21.70;37.00;;;;;;5029002;28;20029;-49
2021/05/07 01:55:09;;;;;;;0.17;0.00;;;21.70;36.90;;;;;;5026215;28;20029;-50
2021/05/07 01:57:36;;;;;;;0.22;0.10;;;21.70;36.90;;;;;;5029210;28;20071;-49
2021/05/07 02:00:11;;;;;;;0.30;0.03;;;21.70;37.00;;;;;;5029174;28;20079;-51
2021/05/07 02:02:37;;;;;;;1.35;0.30;;;21.70;36.90;;;;;;5028869;28;20025;-50
2021/05/07 02:05:05;;;;;;;0.93;0.10;;;21.70;36.90;;;;;;5027957;28;20021;-49
2021/05/07 02:07:31;;;;;;;0.40;0.10;;;21.60;36.80;;;;;;5026377;28;20481;-50
2021/05/07 02:09:57;;;;;;;0.40;0.20;;;21.70;36.90;;;;;;5030295;28;20108;-51
2021/05/07 02:12:23;;;;;;;0.35;0.10;;;21.70;36.90;;;;;;5029103;28;20053;-51
2021/05/07 02:14:50;;;;;;;0.38;0.10;;;21.60;36.90;;;;;;5028908;28;20053;-51
2021/05/07 02:17:17;;;;;;;0.30;0.10;;;21.60;36.80;;;;;;5027112;28;20022;-50
2021/05/07 02:19:43;;;;;;;2.38;0.10;;;21.60;36.80;;;;;;5027619;28;20045;-50
2021/05/07 02:22:09;;;;;;;0.10;0.00;;;21.60;36.90;;;;;;5025318;28;20064;-50
2021/05/07 02:24:35;;;;;;;0.50;0.20;;;21.60;36.80;;;;;;5027742;28;20025;-50
2021/05/07 02:27:01;;;;;;;0.60;0.10;;;21.60;36.90;;;;;;5019325;28;20486;-49
2021/05/07 02:29:27;;;;;;;0.73;0.10;;;21.60;36.80;;;;;;5028842;28;20091;-50
2021/05/07 02:31:53;;;;;;;0.65;0.10;;;21.60;36.90;;;;;;5034038;28;20034;-50
2021/05/07 02:34:19;;;;;;;0.10;0.00;;;21.60;36.80;;;;;;5033179;28;20036;-50
2021/05/07 02:36:45;;;;;;;0.40;0.10;;;21.60;36.80;;;;;;5028547;28;20018;-50
2021/05/07 02:39:11;;;;;;;0.25;0.10;;;21.60;36.80;;;;;;5027410;28;20573;-50
2021/05/07 02:41:37;;;;;;;0.22;0.10;;;21.60;36.80;;;;;;5028390;28;20025;-51
2021/05/07 02:44:06;;;;;;;0.22;0.10;;;21.50;36.80;;;;;;5027805;28;20554;-50
2021/05/07 02:46:34;;;;;;;0.30;0.10;;;21.50;36.80;;;;;;5028523;28;20029;-48
2021/05/07 02:49:01;;;;;;;0.20;0.08;;;21.50;36.80;;;;;;5028785;28;20030;-51
2021/05/07 02:51:27;;;;;;;0.45;0.10;;;21.50;36.80;;;;;;5022059;28;20403;-51
2021/05/07 02:53:54;;;;;;;0.88;0.10;;;21.50;36.80;;;;;;5026542;28;20022;-46
2021/05/07 02:56:20;;;;;;;0.35;0.17;;;21.50;36.80;;;;;;5028617;28;20025;-49
2021/05/07 02:58:46;;;;;;;0.40;0.10;;;21.50;36.80;;;;;;5027889;28;20104;-49
2021/05/07 03:01:12;;;;;;;0.30;0.10;;;21.50;36.90;;;;;;5027692;28;20056;-50
2021/05/07 03:03:37;;;;;;;0.30;0.10;;;21.50;36.80;;;;;;5027161;28;20091;-49
2021/05/07 03:06:04;;;;;;;0.40;0.10;;;21.40;36.80;;;;;;5027922;28;20466;-49
2021/05/07 03:08:30;;;;;;;0.50;0.10;;;21.40;36.80;;;;;;5027257;28;20061;-50
2021/05/07 03:10:56;;;;;;;0.63;0.10;;;21.40;36.80;;;;;;5027337;28;20029;-49
2021/05/07 03:13:22;;;;;;;0.30;0.10;;;21.40;36.80;;;;;;5027907;28;20026;-49
2021/05/07 03:15:48;;;;;;;0.43;0.10;;;21.40;36.70;;;;;;5026623;28;20510;-50
2021/05/07 03:18:15;;;;;;;0.20;0.10;;;21.40;36.70;;;;;;5028046;28;20093;-51
2021/05/07 03:20:42;;;;;;;0.30;0.10;;;21.50;36.80;;;;;;5027688;28;20029;-49
2021/05/07 03:23:08;;;;;;;0.85;0.17;;;21.40;36.70;;;;;;5028779;28;20064;-50
2021/05/07 03:25:34;;;;;;;1.10;0.10;;;21.40;36.70;;;;;;5025656;28;20037;-49
2021/05/07 03:28:00;;;;;;;0.30;0.10;;;21.40;36.70;;;;;;5028762;28;20029;-52
2021/05/07 03:30:26;;;;;;;0.57;0.10;;;21.40;36.80;;;;;;5027425;28;20537;-50
2021/05/07 03:32:52;;;;;;;1.60;0.20;;;21.40;36.80;;;;;;5027411;28;20546;-51
2021/05/07 03:35:18;;;;;;;0.40;0.10;;;21.40;36.80;;;;;;5027335;28;20108;-49
2021/05/07 03:37:44;;;;;;;0.20;0.00;;;21.40;36.70;;;;;;5028125;28;20036;-50
2021/05/07 03:40:11;;;;;;;0.47;0.10;;;21.40;36.80;;;;;;5028050;28;20018;-49
2021/05/07 03:42:37;;;;;;;0.35;0.10;;;21.40;36.80;;;;;;5027423;28;20030;-51
2021/05/07 03:45:04;;;;;;;0.30;0.10;;;21.40;36.80;;;;;;5027706;28;20025;-49
2021/05/07 03:47:30;;;;;;;0.20;0.10;;;21.40;36.80;;;;;;5027718;28;20047;-50
2021/05/07 03:49:56;;;;;;;0.30;0.00;;;21.30;36.80;;;;;;5027832;28;20033;-50
2021/05/07 03:52:22;;;;;;;0.30;0.10;;;21.40;36.80;;;;;;5027857;28;20023;-51
2021/05/07 03:54:48;;;;;;;0.17;0.10;;;21.30;36.80;;;;;;5027305;28;20113;-50
2021/05/07 03:57:14;;;;;;;0.30;0.10;;;21.30;36.80;;;;;;5030938;28;20534;-51
2021/05/07 03:59:40;;;;;;;0.35;0.10;;;21.30;36.80;;;;;;5037268;28;20035;-50
2021/05/07 04:02:06;;;;;;;0.15;0.08;;;21.30;36.70;;;;;;5031457;28;20053;-51
2021/05/07 04:04:35;;;;;;;0.20;0.10;;;21.30;36.70;;;;;;5031144;28;20532;-50
2021/05/07 04:07:01;;;;;;;0.47;0.10;;;21.30;36.70;;;;;;5030290;28;20033;-50
2021/05/07 04:09:33;;;;;;;0.50;0.10;;;21.30;36.70;;;;;;5031975;28;20720;-50
2021/05/07 04:12:12;;;;;;;0.32;0.10;;;21.30;36.70;;;;;;5024145;28;20017;-50
2021/05/07 04:14:38;;;;;;;0.30;0.10;;;21.30;36.80;;;;;;5030600;28;20033;-50
2021/05/07 04:17:03;;;;;;;0.88;0.10;;;21.30;36.80;;;;;;5029968;28;20018;-50
2021/05/07 04:19:30;;;;;;;0.20;0.03;;;21.30;36.80;;;;;;5031158;28;20509;-50
2021/05/07 04:21:56;;;;;;;0.50;0.10;;;21.30;36.80;;;;;;5031033;28;20474;-50
2021/05/07 04:24:22;;;;;;;1.05;0.08;;;21.20;36.70;;;;;;5030773;28;20032;-50
2021/05/07 04:26:48;;;;;;;0.43;0.15;;;21.30;36.80;;;;;;5030938;28;20022;-49
2021/05/07 04:29:14;;;;;;;0.30;0.10;;;21.30;36.80;;;;;;5030045;28;20025;-49
2021/05/07 04:31:39;;;;;;;0.20;0.00;;;21.20;36.70;;;;;;5031296;28;20041;-49
2021/05/07 04:34:06;;;;;;;0.20;0.05;;;21.30;36.70;;;;;;5029220;28;20029;-49
2021/05/07 04:36:33;;;;;;;0.15;0.00;;;21.20;36.70;;;;;;5030437;28;20029;-50
2021/05/07 04:38:59;;;;;;;0.30;0.10;;;21.20;36.70;;;;;;5022967;28;20025;-50
2021/05/07 04:41:25;;;;;;;0.45;0.10;;;21.20;36.70;;;;;;5030924;28;20029;-50
2021/05/07 04:43:51;;;;;;;0.82;0.20;;;21.20;36.70;;;;;;5030626;28;20064;-49
2021/05/07 04:46:18;;;;;;;0.52;0.10;;;21.20;36.70;;;;;;5030282;28;20067;-51
2021/05/07 04:48:44;;;;;;;0.22;0.10;;;21.20;36.70;;;;;;5030433;28;20048;-51
2021/05/07 04:51:09;;;;;;;0.17;0.00;;;21.20;36.70;;;;;;5031089;28;20552;-49
2021/05/07 04:53:35;;;;;;;0.57;0.08;;;21.20;36.60;;;;;;5030839;28;20366;-50
2021/05/07 04:56:01;;;;;;;0.65;0.10;;;21.20;36.60;;;;;;5033191;28;20079;-53
2021/05/07 04:58:27;;;;;;;0.50;0.10;;;21.20;36.60;;;;;;5037053;28;20483;-50
2021/05/07 05:00:53;;;;;;;0.20;0.10;;;21.20;36.70;;;;;;5031610;28;20074;-50
2021/05/07 05:03:19;;;;;;;0.38;0.08;;;21.20;36.60;;;;;;5030087;28;20547;-49
2021/05/07 05:05:45;;;;;;;0.20;0.00;;;21.20;36.70;;;;;;5029591;28;20104;-50
2021/05/07 05:08:11;;;;;;;0.77;0.10;;;21.20;36.60;;;;;;5030254;28;20033;-49
2021/05/07 05:10:36;;;;;;;0.35;0.10;;;21.20;36.60;;;;;;5028797;28;20033;-50
2021/05/07 05:13:02;;;;;;;0.10;0.03;;;21.20;36.70;;;;;;5029630;28;20033;-51
2021/05/07 05:15:28;;;;;;;0.25;0.10;;;21.20;36.60;;;;;;5028731;28;20501;-49
2021/05/07 05:17:54;;;;;;;1.45;0.10;;;21.20;36.60;;;;;;5029893;28;20028;-49
2021/05/07 05:20:20;;;;;;;0.35;0.10;;;21.20;36.60;;;;;;5029248;28;20029;-51
2021/05/07 05:22:46;;;;;;;0.55;0.10;;;21.20;36.60;;;;;;5030004;28;20119;-52
2021/05/07 05:25:13;;;;;;;0.30;0.08;;;21.20;36.50;;;;;;5028847;28;20028;-50
2021/05/07 05:27:39;;;;;;;0.28;0.10;;;21.20;36.60;;;;;;5029870;28;20042;-49
2021/05/07 05:30:06;;;;;;;0.70;0.10;;;21.20;36.60;;;;;;5028647;28;20025;-51
2021/05/07 05:32:32;;;;;;;0.20;0.10;;;21.20;36.60;;;;;;5030182;28;20509;-49
2021/05/07 05:34:58;;;;;;;0.47;0.10;;;21.20;36.60;;;;;;5027698;28;20056;-49
2021/05/07 05:37:24;;;;;;;0.63;0.10;;;21.20;36.60;;;;;;5029532;28;20021;-50
2021/05/07 05:39:50;;;;;;;0.40;0.20;;;21.20;36.60;;;;;;5029557;28;20017;-51
2021/05/07 05:42:16;;;;;;;0.22;0.10;;;21.20;36.60;;;;;;5029226;28;20104;-49
2021/05/07 05:44:42;;;;;;;0.10;0.00;;;21.20;36.60;;;;;;5029501;28;20105;-50
2021/05/07 05:47:08;;;;;;;0.22;0.10;;;21.10;36.60;;;;;;5029923;28;20399;-50
2021/05/07 05:49:34;;;;;;;0.17;0.00;;;21.20;36.70;;;;;;5029436;28;20554;-49
2021/05/07 05:52:00;;;;;;;0.40;0.10;;;21.30;36.70;;;;;;5029136;28;20108;-49
2021/05/07 05:54:26;;;;;;;0.43;0.10;;;21.30;36.50;;;;;;5028034;28;20082;-50
2021/05/07 05:56:52;;;;;;;0.17;0.00;;;21.40;36.40;;;;;;5028703;28;20083;-48
2021/05/07 05:59:18;;;;;;;0.15;0.00;;;21.50;36.30;;;;;;5028705;28;20538;-50
2021/05/07 06:01:44;;;;;;;0.22;0.08;;;21.60;36.20;;;;;;5029774;28;20433;-51
2021/05/07 06:04:12;;;;;;;0.20;0.10;;;21.70;36.10;;;;;;5028534;28;20100;-51
2021/05/07 06:06:38;;;;;;;1.27;0.00;;;21.80;35.90;;;;;;5020796;28;20025;-50
2021/05/07 06:09:05;;;;;;;0.40;0.10;;;21.80;35.80;;;;;;5028446;28;20037;-51
2021/05/07 06:11:31;;;;;;;0.30;0.10;;;21.90;36.20;;;;;;5029186;28;20040;-49
2021/05/07 06:13:57;;;;;;;0.15;0.00;;;21.90;35.80;;;;;;5026595;28;20022;-51
2021/05/07 06:16:23;;;;;;;0.60;0.10;;;21.90;35.80;;;;;;5034688;28;20024;-48
2021/05/07 06:18:49;;;;;;;1.55;0.10;;;22.00;35.80;;;;;;5032696;28;20017;-49
2021/05/07 06:21:15;;;;;;;0.52;0.10;;;22.00;35.70;;;;;;5034106;28;20113;-49
2021/05/07 06:23:41;;;;;;;0.95;0.10;;;22.00;35.60;;;;;;5030642;28;20506;-51
2021/05/07 06:26:07;;;;;;;0.73;0.10;;;22.00;35.60;;;;;;5027556;28;20010;-49
2021/05/07 06:28:33;;;;;;;0.40;0.10;;;22.00;35.60;;;;;;5029148;28;20018;-51
2021/05/07 06:30:59;;;;;;;0.55;0.10;;;22.00;35.50;;;;;;5028432;28;20021;-51
2021/05/07 06:33:26;;;;;;;0.25;0.05;;;22.00;35.50;;;;;;5028907;28;20034;-50
2021/05/07 06:35:53;;;;;;;0.32;0.10;;;22.00;35.30;;;;;;5027011;28;20033;-50
2021/05/07 06:38:19;;;;;;;0.70;0.10;;;22.00;35.30;;;;;;5027678;28;20040;-49
2021/05/07 06:40:45;;;;;;;0.20;0.03;;;22.00;35.60;;;;;;5027162;28;20025;-49
2021/05/07 06:43:12;;;;;;;2.22;0.20;;;22.00;35.70;;;;;;5028138;28;20043;-49
2021/05/07 06:45:37;;;;;;;0.43;0.10;;;22.00;35.70;;;;;;5028649;28;20399;-50
2021/05/07 06:48:05;;;;;;;1.20;0.00;;;22.00;35.70;;;;;;5028502;28;20021;-50
2021/05/07 06:50:31;;;;;;;0.35;0.10;;;21.90;35.70;;;;;;5027855;28;20465;-51
2021/05/07 06:52:57;;;;;;;0.30;0.10;;;21.90;35.70;;;;;;5028554;28;20079;-50
2021/05/07 06:55:23;;;;;;;0.50;0.10;;;21.90;35.70;;;;;;5026123;28;20029;-49
2021/05/07 06:57:50;;;;;;;0.30;0.10;;;21.90;35.80;;;;;;5028946;28;20067;-49
2021/05/07 07:00:17;;;;;;;0.30;0.10;;;21.90;35.80;;;;;;5026752;28;20032;-49
2021/05/07 07:02:42;;;;;;;1.10;0.10;;;21.90;35.70;;;;;;5026395;28;20025;-49
2021/05/07 07:05:09;;;;;;;0.60;0.10;;;21.90;35.80;;;;;;5027357;28;20533;-45
2021/05/07 07:07:36;;;;;;;0.45;0.05;;;21.90;35.80;;;;;;5028095;28;20137;-49
2021/05/07 07:10:06;;;;;;;2.92;0.13;;;21.80;35.80;;;;;;5027730;28;20394;-50
2021/05/07 07:12:32;;;;;;;0.55;0.10;;;21.80;35.90;;;;;;5027775;28;20030;-51
2021/05/07 07:14:58;;;;;;;2.13;0.10;;;21.80;36.40;;;;;;5026671;28;20033;-50
2021/05/07 07:17:24;;;;;;;1.33;0.30;;;21.80;35.90;;;;;;5026733;28;20041;-48
2021/05/07 07:19:50;;;;;;;0.50;0.15;;;21.80;35.90;;;;;;5027643;28;20032;-48
2021/05/07 07:22:18;;;;;;;0.85;0.10;;;21.80;35.90;;;;;;5034452;28;20112;-47
2021/05/07 07:24:43;;;;;;;0.70;0.15;;;21.80;36.00;;;;;;5031501;28;20037;-50
2021/05/07 07:27:09;;;;;;;0.38;0.10;;;21.80;35.90;;;;;;5027766;28;20398;-51
2021/05/07 07:29:35;;;;;;;0.75;0.17;;;21.80;36.00;;;;;;5029002;28;20090;-49
2021/05/07 07:32:01;;;;;;;0.20;0.10;;;21.80;35.90;;;;;;5030173;28;20029;-45
2021/05/07 07:34:28;;;;;;;0.75;0.08;;;21.80;36.00;;;;;;5030295;28;20047;-46
2021/05/07 07:36:54;;;;;;;0.93;0.10;;;21.80;35.90;;;;;;5030245;28;20069;-50
2021/05/07 07:39:20;;;;;;;2.88;0.10;;;21.80;36.00;;;;;;5032660;28;20045;-48
2021/05/07 07:41:50;;;;;;;6.00;0.10;;;21.80;36.00;;;;;;5031985;28;20033;-46
2021/05/07 07:44:17;;;;;;;0.43;0.20;;;21.80;36.10;;;;;;5030633;28;20137;-48
2021/05/07 07:46:43;;;;;;;1.42;0.10;;;21.80;36.20;;;;;;5030046;28;20034;-50
2021/05/07 07:49:09;;;;;;;0.60;0.10;;;21.80;36.30;;;;;;5030271;28;20030;-50
2021/05/07 07:51:36;;;;;;;0.82;0.10;;;21.80;36.40;;;;;;5031950;28;20104;-46
2021/05/07 07:54:07;;;;;;;1.45;0.28;;;21.80;36.40;;;;;;5030894;28;20056;-47
2021/05/07 07:56:34;;;;;;;2.58;0.10;;;21.80;36.40;;;;;;5028825;28;20453;-43
2021/05/07 07:59:00;;;;;;;1.25;0.20;;;21.90;36.70;;;;;;5027288;28;20033;-44
2021/05/07 08:01:26;;;;;;;1.02;0.20;;;21.90;36.60;;;;;;5029064;28;20023;-47
2021/05/07 08:03:53;;;;;;;1.10;0.20;;;22.00;36.80;;;;;;5029465;28;20033;-43
2021/05/07 08:06:19;;;;;;;1.25;0.30;;;22.00;36.50;;;;;;5030118;28;20021;-40
2021/05/07 08:08:45;;;;;;;0.85;0.40;;;22.00;36.70;;;;;;5029056;28;20056;-45
2021/05/07 08:11:11;;;;;;;0.85;0.20;;;22.10;36.70;;;;;;5030097;28;20029;-44
2021/05/07 08:13:37;;;;;;;1.48;0.40;;;22.10;36.80;;;;;;5030505;28;20026;-49
2021/05/07 08:16:03;;;;;;;1.13;0.50;;;22.10;36.90;;;;;;5029123;28;20049;-48
2021/05/07 08:18:29;;;;;;;0.90;0.22;;;22.10;36.80;;;;;;5029122;28;20102;-45
2021/05/07 08:20:55;;;;;;;2.55;0.50;;;22.10;36.80;;;;;;5030839;28;20105;-50
2021/05/07 08:23:21;;;;;;;1.50;0.40;;;22.10;36.90;;;;;;5029862;28;20685;-50
2021/05/07 08:25:47;;;;;;;1.58;0.40;;;22.10;36.90;;;;;;5030179;28;20520;-50
2021/05/07 08:28:13;;;;;;;0.93;0.50;;;22.10;37.00;;;;;;5029317;28;20033;-53
2021/05/07 08:30:39;;;;;;;1.67;0.30;;;22.10;37.00;;;;;;5029782;28;20189;-49
2021/05/07 08:33:05;;;;;;;1.85;0.30;;;22.20;37.20;;;;;;5029924;28;20018;-50
2021/05/07 08:35:32;;;;;;;2.35;0.60;;;22.20;37.10;;;;;;5030171;28;20026;-48
2021/05/07 08:37:59;;;;;;;2.38;0.50;;;22.30;37.20;;;;;;5023845;28;20030;-49
2021/05/07 08:40:26;;;;;;;1.77;0.60;;;22.30;37.20;;;;;;5028887;28;20025;-46
2021/05/07 08:42:52;;;;;;;2.75;1.08;;;22.30;37.10;;;;;;5029928;28;20120;-47
2021/05/07 08:45:18;;;;;;;2.03;0.93;;;22.30;37.40;;;;;;5028430;28;20029;-50
2021/05/07 08:47:44;;;;;;;1.92;0.75;;;22.30;37.30;;;;;;5029267;28;20367;-47
2021/05/07 08:50:10;;;;;;;2.80;0.90;;;22.30;37.40;;;;;;5028820;28;20029;-48
2021/05/07 08:52:36;;;;;;;3.20;1.05;;;22.30;37.40;;;;;;5028518;28;20667;-50
2021/05/07 08:55:04;;;;;;;2.33;0.80;;;22.30;37.20;;;;;;5029679;28;20449;-51
2021/05/07 08:57:30;;;;;;;1.85;0.80;;;22.30;37.30;;;;;;5027185;28;20474;-50
2021/05/07 08:59:56;;;;;;;1.23;0.55;;;22.30;37.40;;;;;;5027627;28;20027;-47
2021/05/07 09:02:31;;;;;;;2.08;0.60;;;22.30;37.20;;;;;;5028698;28;20033;-44
2021/05/07 09:04:59;;;;;;;3.33;0.80;;;22.30;37.30;;;;;;5028346;28;20079;-45
2021/05/07 09:07:26;;;;;;;1.17;0.73;;;22.30;37.50;;;;;;5027467;28;20064;-47
2021/05/07 09:10:01;;;;;;;1.40;0.50;;;22.30;37.60;;;;;;5028369;28;20391;-46
2021/05/07 09:12:31;;;;;;;4.60;0.70;;;22.30;37.60;;;;;;5027816;28;20040;-44
2021/05/07 09:14:59;;;;;;;2.35;0.70;;;22.30;37.50;;;;;;5028871;28;20029;-44
2021/05/07 09:17:27;;;;;;;2.28;0.65;;;22.30;37.70;;;;;;5029633;28;20031;-44
2021/05/07 09:20:34;;;;;;;1.45;0.60;;;22.30;37.50;;;;;;5028885;28;20364;-47
2021/05/07 09:23:03;;;;;;;1.27;0.40;;;22.30;37.50;;;;;;5010121;28;20029;-45
2021/05/07 09:25:29;;;;;;;0.82;0.47;;;22.40;37.60;;;;;;5028614;28;20017;-47
2021/05/07 09:28:09;;;;;;;0.93;0.57;;;22.40;37.80;;;;;;5028447;28;20026;-43
2021/05/07 09:30:35;;;;;;;2.03;0.68;;;22.40;37.70;;;;;;5028881;28;20029;-47
2021/05/07 09:33:07;;;;;;;1.17;0.32;;;22.40;37.60;;;;;;5029211;28;20045;-53
2021/05/07 09:35:33;;;;;;;0.98;0.60;;;22.40;37.80;;;;;;5028531;28;20072;-51
2021/05/07 09:38:12;;;;;;;1.35;0.65;;;22.40;37.60;;;;;;5028100;28;20113;-52
2021/05/07 09:40:40;;;;;;;3.47;0.82;;;22.40;37.80;;;;;;5024887;28;20040;-49
2021/05/07 09:43:11;;;;;;;2.75;0.75;;;22.50;37.80;;;;;;5028347;28;20647;-48
2021/05/07 09:45:39;;;;;;;4.40;0.57;;;22.50;38.00;;;;;;5025387;28;20065;-50
2021/05/07 09:48:27;;;;;;;1.00;0.50;;;22.50;37.90;;;;;;5027851;28;20036;-47
2021/05/07 09:50:58;;;;;;;1.52;0.30;;;22.50;38.10;;;;;;5028048;28;20084;-49
2021/05/07 09:53:25;;;;;;;;;;;22.50;38.00;;;;;;5024607;28;20500;-47
2021/05/07 09:55:56;;;;;;;1.40;0.30;;;22.50;38.10;;;;;;5025130;28;19913;-48
2021/05/07 09:58:22;;;;;;;3.30;0.40;;;22.50;38.10;;;;;;5028603;28;20029;-52
2021/05/07 10:00:48;;;;;;;2.88;0.30;;;22.50;38.20;;;;;;5028121;28;20037;-50
2021/05/07 10:03:14;;;;;;;0.70;0.30;;;22.50;38.20;;;;;;5027884;28;20075;-51
2021/05/07 10:05:40;;;;;;;0.77;0.20;;;22.40;38.10;;;;;;5018204;28;20516;-49
2021/05/07 10:08:07;;;;;;;1.55;0.47;;;22.40;38.00;;;;;;5027038;28;20022;-46
2021/05/07 10:10:38;;;;;;;1.00;0.30;;;22.40;37.90;;;;;;5025799;28;20029;-48
2021/05/07 10:13:07;;;;;;;0.70;0.20;;;22.40;38.00;;;;;;5028166;28;20351;-46
2021/05/07 10:15:36;;;;;;;1.10;0.30;;;22.40;38.10;;;;;;5028034;28;20045;-49
2021/05/07 10:18:04;;;;;;;3.30;0.43;;;22.40;38.00;;;;;;5028036;28;20056;-48
2021/05/07 10:20:35;;;;;;;1.10;0.30;;;22.40;37.90;;;;;;5013274;28;20040;-49
2021/05/07 10:23:17;;;;;;;1.05;0.30;;;22.40;37.90;;;;;;5020912;28;20082;-50
2021/05/07 10:25:58;;;;;;;3.13;0.57;;;22.40;37.70;;;;;;5027964;28;20378;-47
2021/05/07 10:28:26;;;;;;;0.70;0.20;;;22.40;37.70;;;;;;5027488;28;20053;-49
2021/05/07 10:31:05;;;;;;;1.00;0.20;;;22.40;37.60;;;;;;5029057;28;20094;-44
2021/05/07 10:33:32;;;;;;;1.50;0.30;;;22.40;37.70;;;;;;5026186;28;20112;-47
2021/05/07 10:35:58;;;;;;;2.42;0.40;;;22.40;37.80;;;;;;5027931;28;20017;-43
2021/05/07 10:38:26;;;;;;;0.68;0.20;;;22.40;37.90;;;;;;5027871;28;20022;-44
2021/05/07 10:41:08;;;;;;;1.00;0.20;;;22.40;37.90;;;;;;5028245;28;20037;-46
2021/05/07 10:43:43;;;;;;;2.47;0.40;;;22.40;37.90;;;;;;5027661;28;20021;-46
2021/05/07 10:46:26;;;;;;;2.72;0.20;;;22.40;37.90;;;;;;5028234;28;20036;-44
2021/05/07 10:49:00;;;;;;;2.60;0.10;;;22.40;38.00;;;;;;5027136;28;20037;-46
2021/05/07 10:51:28;;;;;;;0.88;0.20;;;22.40;37.90;;;;;;5027454;28;20059;-43
2021/05/07 10:54:14;;;;;;;2.88;0.32;;;22.40;38.00;;;;;;5027326;28;20582;-45
2021/05/07 10:56:43;;;;;;;1.02;0.28;;;22.40;37.90;;;;;;5020242;28;20392;-50
2021/05/07 10:59:20;;;;;;;2.13;0.20;;;22.50;38.10;;;;;;5027529;28;20037;-47
2021/05/07 11:02:00;;;;;;;0.90;0.32;;;22.50;37.70;;;;;;5029487;28;20582;-46
2021/05/07 11:04:27;;;;;;;1.48;0.20;;;22.50;37.70;;;;;;5030581;28;20112;-51
2021/05/07 11:07:01;;;;;;;2.60;0.30;;;22.50;37.70;;;;;;5031045;28;20033;-48
2021/05/07 11:09:28;;;;;;;1.33;0.20;;;22.50;37.80;;;;;;5027351;28;20044;-47
2021/05/07 11:12:02;;;;;;;1.58;0.20;;;22.60;38.10;;;;;;5030883;28;20037;-49
2021/05/07 11:14:29;;;;;;;0.30;0.10;;;22.60;38.30;;;;;;5030321;28;20025;-49
2021/05/07 11:16:55;;;;;;;1.10;0.20;;;22.60;38.00;;;;;;5030684;28;20130;-47
2021/05/07 11:19:30;;;;;;;0.45;0.17;;;22.60;38.10;;;;;;5031334;28;20025;-48
2021/05/07 11:22:07;;;;;;;0.90;0.20;;;22.60;38.20;;;;;;5032082;28;20029;-48
2021/05/07 11:24:36;;;;;;;1.25;0.20;;;22.60;38.30;;;;;;5030957;28;20048;-47
2021/05/07 11:27:21;;;;;;;1.20;0.20;;;22.50;38.10;;;;;;5032033;28;20025;-46
2021/05/07 11:29:48;;;;;;;0.30;0.10;;;22.60;38.30;;;;;;5029895;28;20572;-43
2021/05/07 11:32:16;;;;;;;1.83;0.10;;;22.60;38.40;;;;;;5030786;28;20041;-46
2021/05/07 11:34:50;;;;;;;2.92;0.15;;;22.60;38.50;;;;;;5031540;28;20036;-48
2021/05/07 11:37:15;;;;;;;0.73;0.20;;;22.60;38.50;;;;;;5031615;28;20021;-50
2021/05/07 11:39:41;;;;;;;0.32;0.10;;;22.60;38.40;;;;;;5032113;28;20067;-48
2021/05/07 11:42:10;;;;;;;1.30;0.35;;;22.60;38.40;;;;;;5030791;28;20029;-54
2021/05/07 11:44:47;;;;;;;3.10;0.10;;;22.60;38.40;;;;;;5029146;28;20030;-51
2021/05/07 11:47:13;;;;;;;0.70;0.10;;;22.60;38.40;;;;;;5027419;28;20047;-50
2021/05/07 11:49:48;;;;;;;0.60;0.10;;;22.60;38.50;;;;;;5030894;28;20526;-46
2021/05/07 11:52:14;;;;;;;1.90;0.10;;;22.60;38.60;;;;;;5029963;28;20029;-49
2021/05/07 11:54:42;;;;;;;0.57;0.17;;;22.70;38.50;;;;;;5029477;28;20453;-50
2021/05/07 11:57:08;;;;;;;0.60;0.10;;;22.70;38.40;;;;;;5039289;28;20088;-46
2021/05/07 11:59:38;;;;;;;0.38;0.17;;;22.70;38.40;;;;;;5037826;28;20028;-51
2021/05/07 12:02:05;;;;;;;0.68;0.20;;;22.70;38.40;;;;;;5038465;28;20658;-48
2021/05/07 12:04:42;;;;;;;0.30;0.10;;;22.70;38.40;;;;;;5039815;28;20079;-45
2021/05/07 12:07:21;;;;;;;0.55;0.10;;;22.80;38.50;;;;;;5033881;28;20055;-47
2021/05/07 12:09:48;;;;;;;0.40;0.10;;;22.70;38.50;;;;;;5032259;28;20056;-47
2021/05/07 12:12:14;;;;;;;0.80;0.15;;;22.80;38.90;;;;;;5029475;28;20033;-46
2021/05/07 12:14:50;;;;;;;1.85;0.30;;;22.80;38.70;;;;;;5029806;28;20029;-46
2021/05/07 12:17:21;;;;;;;0.45;0.10;;;22.80;38.10;;;;;;5030269;28;20106;-48
2021/05/07 12:20:02;;;;;;;0.57;0.10;;;22.80;38.30;;;;;;5029201;28;20029;-46
2021/05/07 12:22:28;;;;;;;0.32;0.10;;;22.90;37.60;;;;;;5030714;28;20057;-44
2021/05/07 12:24:54;;;;;;;0.63;0.10;;;22.90;37.70;;;;;;5028515;28;20041;-43
2021/05/07 12:27:29;;;;;;;0.20;0.10;;;22.90;38.60;;;;;;5031625;28;20068;-50
2021/05/07 12:29:55;;;;;;;0.57;0.10;;;22.90;37.70;;;;;;5030625;28;20449;-44
2021/05/07 12:32:23;;;;;;;0.20;0.10;;;22.80;37.50;;;;;;5029268;28;20088;-49
2021/05/07 12:34:59;;;;;;;0.30;0.10;;;22.90;37.90;;;;;;5029584;28;20052;-52
2021/05/07 12:37:39;;;;;;;0.30;0.10;;;22.90;37.50;;;;;;5030660;28;20087;-44
2021/05/07 12:40:06;;;;;;;0.40;0.10;;;22.90;39.10;;;;;;5029813;28;20031;-46
2021/05/07 12:42:32;;;;;;;1.13;0.10;;;23.00;38.50;;;;;;5030412;28;20075;-45
2021/05/07 12:44:58;;;;;;;1.13;0.10;;;23.00;38.30;;;;;;5027075;28;20117;-49
2021/05/07 12:47:24;;;;;;;1.55;0.20;;;23.00;38.70;;;;;;5029281;28;20116;-45
2021/05/07 12:49:50;;;;;;;0.20;0.00;;;23.00;39.10;;;;;;5029083;28;20038;-46
2021/05/07 12:52:16;;;;;;;0.28;0.05;;;22.90;38.90;;;;;;5029235;28;20022;-47